createdAt,value
2022-11-23T00:01:44.023Z,3.10
2022-11-23T00:04:13.967Z,3.72
2022-11-23T00:06:42.292Z,3.58
2022-11-23T00:09:11.668Z,3.10
2022-11-23T00:11:40.077Z,3.17
2022-11-23T00:14:07.575Z,3.55
2022-11-23T00:16:35.200Z,3.63
2022-11-23T00:19:03.850Z,3.85
2022-11-23T00:21:33.258Z,3.75
2022-11-23T00:24:01.388Z,4.00
2022-11-23T00:26:29.153Z,4.07
2022-11-23T00:28:57.058Z,3.80
2022-11-23T00:31:27.655Z,3.50
2022-11-23T00:33:57.485Z,3.65
2022-11-23T00:36:27.945Z,4.07
2022-11-23T00:38:56.354Z,3.60
2022-11-23T00:41:28.888Z,4.22
2022-11-23T00:44:12.994Z,2.75
2022-11-23T00:46:40.649Z,3.00
2022-11-23T00:49:08.268Z,3.30
2022-11-23T00:51:38.017Z,3.25
2022-11-23T00:54:06.693Z,3.40
2022-11-23T00:56:36.065Z,3.63
2022-11-23T00:59:06.739Z,2.67
2022-11-23T01:01:39.452Z,4.13
2022-11-23T01:04:10.255Z,3.25
2022-11-23T01:06:40.847Z,2.92
2022-11-23T01:09:18.500Z,3.25
2022-11-23T01:11:46.200Z,3.13
2022-11-23T01:14:13.846Z,3.38
2022-11-23T01:16:42.449Z,3.75
2022-11-23T01:19:19.223Z,3.60
2022-11-23T01:21:50.283Z,3.50
2022-11-23T01:24:23.483Z,4.40
2022-11-23T01:26:55.642Z,4.10
2022-11-23T01:29:33.808Z,3.88
2022-11-23T01:32:04.864Z,3.90
2022-11-23T01:34:38.259Z,3.20
2022-11-23T01:37:06.297Z,3.78
2022-11-23T01:39:33.984Z,4.05
2022-11-23T01:42:03.019Z,3.45
2022-11-23T01:44:36.820Z,3.83
2022-11-23T01:47:09.683Z,3.88
2022-11-23T01:49:50.048Z,4.38
2022-11-23T01:52:26.831Z,3.83
2022-11-23T01:54:59.884Z,4.32
2022-11-23T01:57:40.938Z,4.18
2022-11-23T02:00:13.560Z,4.38
2022-11-23T02:02:55.611Z,4.32
2022-11-23T02:05:34.142Z,4.60
2022-11-23T02:08:03.208Z,4.63
2022-11-23T02:10:34.200Z,4.70
2022-11-23T02:13:11.760Z,4.78
2022-11-23T02:15:40.683Z,4.38
2022-11-23T02:18:19.924Z,4.60
2022-11-23T02:20:50.980Z,4.60
2022-11-23T02:24:04.070Z,4.15
2022-11-23T02:26:37.170Z,4.40
2022-11-23T02:29:28.217Z,4.07
2022-11-23T02:31:58.390Z,3.97
2022-11-23T02:34:25.908Z,3.40
2022-11-23T02:36:57.730Z,3.90
2022-11-23T02:39:43.036Z,4.50
2022-11-23T02:42:11.114Z,4.15
2022-11-23T02:45:13.017Z,3.72
2022-11-23T02:47:43.234Z,4.50
2022-11-23T02:50:12.447Z,3.67
2022-11-23T02:52:43.340Z,4.00
2022-11-23T02:55:11.304Z,3.83
2022-11-23T02:57:38.889Z,4.57
2022-11-23T03:00:07.933Z,4.13
2022-11-23T03:02:35.385Z,4.03
2022-11-23T03:05:03.203Z,4.25
2022-11-23T03:07:33.146Z,3.80
2022-11-23T03:10:00.923Z,3.80
2022-11-23T03:12:28.561Z,3.92
2022-11-23T03:14:56.355Z,4.38
2022-11-23T03:17:25.034Z,4.00
2022-11-23T03:19:52.347Z,4.65
2022-11-23T03:22:20.053Z,4.45
2022-11-23T03:24:47.865Z,3.95
2022-11-23T03:27:17.116Z,4.40
2022-11-23T03:29:45.652Z,4.10
2022-11-23T03:32:19.125Z,4.20
2022-11-23T03:34:51.927Z,3.95
2022-11-23T03:37:21.158Z,4.45
2022-11-23T03:39:49.193Z,4.32
2022-11-23T03:42:35.780Z,5.22
2022-11-23T03:45:03.889Z,4.53
2022-11-23T03:47:31.378Z,4.78
2022-11-23T03:49:58.939Z,4.25
2022-11-23T03:52:27.670Z,4.80
2022-11-23T03:54:56.066Z,4.70
2022-11-23T03:57:23.694Z,4.78
2022-11-23T03:59:54.870Z,4.63
2022-11-23T04:02:22.830Z,4.40
2022-11-23T04:05:02.012Z,4.60
2022-11-23T04:07:51.213Z,4.85
2022-11-23T04:10:20.802Z,4.82
2022-11-23T04:13:20.822Z,4.60
2022-11-23T04:15:48.332Z,4.50
2022-11-23T04:18:16.089Z,4.60
2022-11-23T04:20:43.724Z,4.60
2022-11-23T04:23:14.198Z,4.57
2022-11-23T04:25:44.227Z,4.47
2022-11-23T04:28:12.636Z,4.80
2022-11-23T04:30:50.331Z,4.85
2022-11-23T04:33:19.013Z,5.05
2022-11-23T04:35:46.514Z,4.80
2022-11-23T04:38:14.923Z,5.30
2022-11-23T04:40:43.468Z,5.15
2022-11-23T04:43:11.814Z,5.18
2022-11-23T04:45:41.319Z,5.20
2022-11-23T04:48:15.778Z,4.90
2022-11-23T04:50:46.734Z,4.57
2022-11-23T04:53:21.071Z,4.72
2022-11-23T04:55:48.821Z,4.43
2022-11-23T04:58:17.498Z,4.70
2022-11-23T05:00:46.924Z,5.03
2022-11-23T05:03:15.596Z,5.43
2022-11-23T05:05:43.898Z,4.90
2022-11-23T05:08:11.483Z,5.90
2022-11-23T05:10:48.885Z,4.60
2022-11-23T05:13:16.274Z,5.47
2022-11-23T05:15:44.962Z,4.65
2022-11-23T05:18:16.372Z,5.00
2022-11-23T05:20:46.062Z,4.72
2022-11-23T05:23:15.045Z,5.60
2022-11-23T05:25:44.728Z,5.10
2022-11-23T05:28:39.104Z,4.82
2022-11-23T05:31:06.916Z,5.05
2022-11-23T05:33:34.609Z,4.88
2022-11-23T05:36:04.742Z,5.07
2022-11-23T05:38:37.434Z,5.10
2022-11-23T05:41:10.909Z,5.30
2022-11-23T05:43:41.194Z,5.10
2022-11-23T05:46:11.925Z,4.88
2022-11-23T05:48:39.621Z,4.40
2022-11-23T05:51:10.209Z,4.60
2022-11-23T05:53:42.028Z,5.07
2022-11-23T05:56:16.914Z,4.35
2022-11-23T05:58:59.252Z,4.63
2022-11-23T06:01:29.118Z,5.10
2022-11-23T06:04:00.555Z,4.82
2022-11-23T06:06:36.327Z,5.10
2022-11-23T06:09:04.539Z,5.03
2022-11-23T06:11:33.498Z,4.63
2022-11-23T06:14:09.975Z,4.88
2022-11-23T06:16:40.230Z,4.22
2022-11-23T06:19:20.331Z,4.93
2022-11-23T06:21:50.553Z,4.90
2022-11-23T06:24:24.092Z,4.70
2022-11-23T06:27:14.006Z,4.88
2022-11-23T06:29:45.199Z,4.88
2022-11-23T06:32:12.747Z,4.88
2022-11-23T06:34:40.088Z,5.38
2022-11-23T06:37:07.355Z,5.10
2022-11-23T06:39:35.789Z,4.22
2022-11-23T06:42:30.921Z,4.68
2022-11-23T06:44:52.762Z,4.70
2022-11-23T06:47:26.263Z,4.93
2022-11-23T06:49:54.035Z,4.70
2022-11-23T06:52:28.518Z,4.40
2022-11-23T06:54:56.002Z,5.07
2022-11-23T06:57:25.392Z,4.38
2022-11-23T06:59:53.948Z,5.32
2022-11-23T07:02:27.149Z,4.60
2022-11-23T07:04:57.323Z,5.03
2022-11-23T07:07:25.674Z,4.75
2022-11-23T07:10:06.814Z,5.03
2022-11-23T07:12:45.574Z,5.22
2022-11-23T07:15:14.902Z,5.82
2022-11-23T07:17:44.711Z,5.65
2022-11-23T07:20:13.815Z,5.72
2022-11-23T07:22:41.573Z,5.70
2022-11-23T07:25:09.696Z,6.57
2022-11-23T07:27:37.662Z,7.28
2022-11-23T07:30:06.893Z,6.43
2022-11-23T07:32:34.378Z,6.53
2022-11-23T07:35:01.680Z,6.78
2022-11-23T07:37:30.550Z,6.05
2022-11-23T07:39:58.616Z,6.47
2022-11-23T07:42:34.674Z,6.32
2022-11-23T07:45:06.995Z,6.80
2022-11-23T07:47:36.915Z,6.90
2022-11-23T07:50:07.045Z,7.70
2022-11-23T07:52:36.236Z,6.95
2022-11-23T07:55:04.645Z,6.82
2022-11-23T07:57:32.188Z,6.53
2022-11-23T07:59:59.431Z,5.85
2022-11-23T08:02:26.698Z,5.97
2022-11-23T08:04:53.871Z,6.43
2022-11-23T08:07:21.178Z,6.32
2022-11-23T08:10:14.166Z,6.65
2022-11-23T08:12:42.700Z,5.75
2022-11-23T08:15:12.724Z,5.85
2022-11-23T08:17:43.440Z,6.20
2022-11-23T08:20:11.808Z,6.07
2022-11-23T08:22:39.125Z,5.57
2022-11-23T08:25:06.940Z,6.18
2022-11-23T08:27:38.369Z,6.40
2022-11-23T08:30:14.740Z,6.07
2022-11-23T08:32:42.009Z,6.22
2022-11-23T08:35:09.712Z,6.85
2022-11-23T08:37:36.971Z,5.68
2022-11-23T08:40:04.716Z,5.60
2022-11-23T08:42:31.962Z,5.90
2022-11-23T08:45:00.227Z,5.65
2022-11-23T08:47:27.711Z,5.88
2022-11-23T08:49:55.162Z,5.00
2022-11-23T08:52:22.345Z,5.05
2022-11-23T08:54:49.533Z,5.13
2022-11-23T08:57:16.807Z,4.53
2022-11-23T08:59:43.984Z,5.40
2022-11-23T09:02:13.965Z,4.65
2022-11-23T09:04:41.731Z,3.95
2022-11-23T09:07:09.200Z,3.20
2022-11-23T09:09:36.689Z,3.28
2022-11-23T09:12:04.882Z,3.60
2022-11-23T09:14:33.181Z,3.58
2022-11-23T09:17:03.272Z,3.05
2022-11-23T09:19:30.766Z,2.70
2022-11-23T09:21:58.127Z,2.85
2022-11-23T09:24:26.196Z,2.80
2022-11-23T09:26:53.697Z,2.38
2022-11-23T09:29:21.002Z,2.88
2022-11-23T09:31:48.133Z,2.80
2022-11-23T09:34:15.358Z,2.90
2022-11-23T09:36:42.628Z,3.10
2022-11-23T09:39:11.414Z,3.00
2022-11-23T09:42:09.507Z,3.13
2022-11-23T09:45:10.888Z,2.80
2022-11-23T09:48:07.170Z,3.15
2022-11-23T09:51:05.627Z,2.80
2022-11-23T09:53:49.600Z,2.70
2022-11-23T09:56:58.481Z,3.13
2022-11-23T09:59:45.026Z,2.97
2022-11-23T10:02:28.778Z,2.90
2022-11-23T10:05:00.032Z,2.80
2022-11-23T10:08:14.840Z,2.67
2022-11-23T10:10:57.270Z,3.30
2022-11-23T10:13:44.059Z,3.05
2022-11-23T10:16:40.782Z,2.92
2022-11-23T10:19:16.979Z,3.00
2022-11-23T10:22:24.422Z,2.67
2022-11-23T10:24:53.986Z,2.88
2022-11-23T10:27:24.534Z,2.72
2022-11-23T10:29:56.513Z,2.88
2022-11-23T10:33:05.443Z,3.30
2022-11-23T10:35:35.224Z,2.75
2022-11-23T10:38:19.677Z,2.75
2022-11-23T10:41:10.573Z,2.63
2022-11-23T10:44:01.474Z,2.95
2022-11-23T10:46:37.968Z,2.55
2022-11-23T10:49:30.148Z,2.90
2022-11-23T10:52:33.405Z,2.72
2022-11-23T10:55:32.357Z,2.80
2022-11-23T10:58:01.230Z,2.92
2022-11-23T11:00:31.122Z,2.55
2022-11-23T11:03:12.428Z,2.42
2022-11-23T11:06:11.590Z,2.30
2022-11-23T11:09:03.710Z,2.63
2022-11-23T11:11:38.957Z,2.85
2022-11-23T11:14:19.511Z,3.22
2022-11-23T11:16:56.693Z,3.15
2022-11-23T11:19:32.484Z,2.95
2022-11-23T11:22:05.288Z,3.17
2022-11-23T11:24:44.841Z,2.28
2022-11-23T11:27:24.759Z,2.70
2022-11-23T11:29:59.507Z,2.95
2022-11-23T11:33:07.077Z,2.72
2022-11-23T11:35:41.164Z,2.83
2022-11-23T11:38:34.147Z,2.20
2022-11-23T11:41:13.487Z,2.75
2022-11-23T11:44:02.593Z,2.47
2022-11-23T11:46:40.785Z,2.15
2022-11-23T11:49:29.167Z,1.65
2022-11-23T11:52:22.235Z,1.85
2022-11-23T11:55:07.331Z,1.80
2022-11-23T11:57:45.894Z,1.60
2022-11-23T12:00:21.135Z,1.20
2022-11-23T12:03:10.522Z,1.33
2022-11-23T12:05:54.878Z,1.50
2022-11-23T12:08:41.038Z,1.70
2022-11-23T12:11:12.879Z,1.50
2022-11-23T12:13:46.814Z,1.40
2022-11-23T12:17:31.907Z,1.20
2022-11-23T12:20:15.783Z,1.50
2022-11-23T12:23:42.396Z,1.50
2022-11-23T12:26:24.604Z,1.02
2022-11-23T12:29:35.320Z,1.10
2022-11-23T12:32:46.448Z,0.95
2022-11-23T12:35:56.748Z,0.95
2022-11-23T12:39:22.632Z,0.80
2022-11-23T12:42:17.550Z,0.77
2022-11-23T12:45:32.983Z,0.80
2022-11-23T12:48:23.973Z,0.98
2022-11-23T12:51:58.253Z,1.35
2022-11-23T12:55:20.655Z,1.20
2022-11-23T12:58:12.380Z,1.10
2022-11-23T13:00:50.709Z,1.23
2022-11-23T13:03:45.932Z,0.98
2022-11-23T13:07:26.900Z,1.05
2022-11-23T13:10:06.134Z,1.45
2022-11-23T13:13:31.886Z,1.10
2022-11-23T13:16:35.658Z,1.20
2022-11-23T13:19:47.011Z,1.15
2022-11-23T13:22:22.520Z,1.00
2022-11-23T13:25:12.845Z,1.10
2022-11-23T13:27:49.332Z,1.08
2022-11-23T13:33:38.555Z,1.33
2022-11-23T13:36:15.311Z,1.45
2022-11-23T13:38:46.017Z,1.20
2022-11-23T13:41:35.276Z,2.55
2022-11-23T13:44:31.569Z,1.58
2022-11-23T13:47:29.651Z,1.40
2022-11-23T13:50:19.649Z,0.85
2022-11-23T13:52:52.314Z,1.00
2022-11-23T13:55:27.867Z,1.02
2022-11-23T13:58:23.561Z,1.00
2022-11-23T14:00:59.866Z,1.00
2022-11-23T14:03:50.124Z,1.00
2022-11-23T14:07:07.374Z,1.20
2022-11-23T14:10:29.897Z,1.20
2022-11-23T14:13:20.213Z,0.98
2022-11-23T14:15:59.487Z,1.05
2022-11-23T14:19:14.385Z,1.27
2022-11-23T14:22:45.632Z,1.45
2022-11-23T14:26:05.011Z,1.13
2022-11-23T14:29:22.085Z,1.90
2022-11-23T14:32:50.383Z,1.30
2022-11-23T14:35:59.348Z,1.17
2022-11-23T14:39:21.639Z,1.63
2022-11-23T14:41:59.877Z,1.10
2022-11-23T14:44:34.130Z,0.90
2022-11-23T14:47:08.432Z,1.50
2022-11-23T14:49:38.062Z,1.48
2022-11-23T14:52:06.351Z,1.48
2022-11-23T14:54:35.263Z,1.75
2022-11-23T14:57:05.529Z,1.63
2022-11-23T14:59:41.896Z,1.65
2022-11-23T15:02:19.163Z,1.60
2022-11-23T15:05:07.004Z,1.50
2022-11-23T15:07:57.286Z,1.45
2022-11-23T15:10:43.094Z,1.40
2022-11-23T15:13:23.336Z,1.10
2022-11-23T15:15:55.753Z,1.10
2022-11-23T15:18:39.521Z,1.60
2022-11-23T15:21:12.967Z,1.60
2022-11-23T15:23:57.307Z,1.40
2022-11-23T15:29:37.929Z,1.63
2022-11-23T15:32:31.190Z,1.48
2022-11-23T15:35:07.465Z,2.13
2022-11-23T15:37:47.018Z,1.88
2022-11-23T15:40:18.525Z,1.80
2022-11-23T15:42:51.054Z,2.95
2022-11-23T15:45:37.223Z,2.33
2022-11-23T15:48:18.817Z,1.85
2022-11-23T15:51:03.100Z,1.67
2022-11-23T15:53:44.253Z,1.90
2022-11-23T15:56:39.837Z,1.63
2022-11-23T15:59:54.670Z,1.77
2022-11-23T16:02:26.363Z,2.03
2022-11-23T16:05:19.401Z,2.00
2022-11-23T16:08:00.344Z,1.90
2022-11-23T16:10:37.528Z,1.80
2022-11-23T16:13:08.868Z,1.95
2022-11-23T16:15:41.665Z,3.90
2022-11-23T16:18:25.163Z,5.53
2022-11-23T16:20:59.869Z,4.75
2022-11-23T16:23:56.480Z,3.60
2022-11-23T16:26:34.617Z,2.67
2022-11-23T16:29:03.746Z,2.72
2022-11-23T16:31:43.302Z,2.80
2022-11-23T16:34:18.686Z,3.75
2022-11-23T16:36:46.481Z,3.90
2022-11-23T16:39:27.759Z,3.53
2022-11-23T16:42:23.037Z,3.90
2022-11-23T16:45:02.315Z,3.22
2022-11-23T16:47:30.715Z,4.57
2022-11-23T16:50:09.115Z,3.63
2022-11-23T16:53:12.128Z,3.20
2022-11-23T16:56:06.710Z,3.10
2022-11-23T16:58:51.683Z,3.80
2022-11-23T17:01:55.455Z,3.95
2022-11-23T17:04:43.335Z,3.30
2022-11-23T17:07:54.825Z,2.80
2022-11-23T17:10:48.340Z,2.80
2022-11-23T17:17:04.859Z,2.75
2022-11-23T17:23:47.826Z,3.25
2022-11-23T17:26:48.189Z,2.13
2022-11-23T17:29:44.117Z,2.58
2022-11-23T17:32:40.709Z,3.05
2022-11-23T17:35:49.824Z,2.80
2022-11-23T17:38:38.383Z,3.40
2022-11-23T17:41:15.789Z,3.70
2022-11-23T17:43:56.370Z,3.88
2022-11-23T17:46:24.848Z,3.15
2022-11-23T17:48:57.861Z,3.15
2022-11-23T17:51:25.761Z,3.53
2022-11-23T17:53:53.020Z,3.65
2022-11-23T17:56:29.923Z,2.67
2022-11-23T17:59:06.947Z,3.30
2022-11-23T18:01:50.510Z,3.30
2022-11-23T18:04:23.204Z,3.30
2022-11-23T18:07:09.653Z,2.15
2022-11-23T18:09:43.882Z,2.30
2022-11-23T18:12:21.911Z,2.17
2022-11-23T18:15:02.747Z,2.10
2022-11-23T18:17:42.232Z,2.70
2022-11-23T18:20:23.059Z,2.47
2022-11-23T18:23:09.965Z,2.47
2022-11-23T18:26:13.326Z,2.15
2022-11-23T18:29:16.844Z,2.53
2022-11-23T18:31:47.706Z,2.90
2022-11-23T18:34:24.117Z,3.30
2022-11-23T18:39:47.664Z,3.40
2022-11-23T18:42:24.361Z,3.22
2022-11-23T18:45:02.141Z,3.42
2022-11-23T18:47:29.400Z,4.10
2022-11-23T18:50:07.103Z,3.60
2022-11-23T18:52:47.401Z,3.30
2022-11-23T18:55:17.718Z,4.35
2022-11-23T19:00:45.634Z,3.90
2022-11-23T19:03:15.847Z,3.97
2022-11-23T19:05:43.028Z,3.63
2022-11-23T19:08:16.682Z,3.00
2022-11-23T19:10:56.230Z,3.80
2022-11-23T19:13:26.517Z,4.00
2022-11-23T19:16:16.156Z,4.93
2022-11-23T19:18:45.117Z,3.65
2022-11-23T19:21:38.012Z,3.80
2022-11-23T19:24:07.321Z,3.78
2022-11-23T19:26:34.769Z,5.10
2022-11-23T19:29:10.574Z,3.88
2022-11-23T19:31:50.709Z,4.65
2022-11-23T19:34:22.329Z,4.75
2022-11-23T19:36:49.687Z,4.30
2022-11-23T19:39:23.721Z,6.45
2022-11-23T19:41:51.423Z,6.93
2022-11-23T19:44:18.991Z,6.38
2022-11-23T19:46:46.241Z,5.40
2022-11-23T19:49:13.528Z,5.20
2022-11-23T19:51:40.759Z,5.95
2022-11-23T19:54:09.865Z,6.50
2022-11-23T19:56:37.307Z,12.50
2022-11-23T19:59:04.956Z,6.97
2022-11-23T20:01:32.896Z,6.38
2022-11-23T20:04:08.835Z,8.05
2022-11-23T20:06:42.451Z,7.65
2022-11-23T20:09:23.396Z,8.07
2022-11-23T20:11:51.691Z,6.50
2022-11-23T20:14:19.837Z,6.63
2022-11-23T20:16:47.894Z,5.70
2022-11-23T20:19:17.473Z,4.97
2022-11-23T20:21:47.029Z,5.75
2022-11-23T20:24:14.864Z,5.15
2022-11-23T20:26:43.242Z,5.00
2022-11-23T20:29:11.656Z,5.00
2022-11-23T20:31:39.308Z,6.10
2022-11-23T20:34:09.233Z,5.95
2022-11-23T20:36:38.981Z,8.00
2022-11-23T20:39:10.969Z,14.18
2022-11-23T20:41:38.805Z,5.90
2022-11-23T20:44:15.554Z,6.70
2022-11-23T20:49:32.029Z,5.32
2022-11-23T20:52:00.331Z,5.88
2022-11-23T20:54:27.656Z,5.40
2022-11-23T20:56:54.947Z,5.25
2022-11-23T20:59:23.826Z,5.32
2022-11-23T21:01:52.394Z,5.30
2022-11-23T21:04:19.587Z,4.68
2022-11-23T21:06:47.234Z,5.22
2022-11-23T21:09:16.148Z,5.47
2022-11-23T21:12:02.447Z,4.53
2022-11-23T21:14:31.730Z,4.93
2022-11-23T21:17:00.748Z,4.35
2022-11-23T21:19:37.669Z,3.65
2022-11-23T21:22:12.431Z,3.38
2022-11-23T21:24:40.998Z,3.83
2022-11-23T21:27:13.139Z,4.00
2022-11-23T21:29:40.599Z,3.72
2022-11-23T21:32:07.959Z,3.25
2022-11-23T21:34:35.568Z,3.40
2022-11-23T21:37:03.127Z,3.67
2022-11-23T21:39:32.319Z,3.30
2022-11-23T21:41:59.658Z,4.40
2022-11-23T21:44:26.860Z,4.82
2022-11-23T21:46:54.096Z,5.28
2022-11-23T21:49:21.611Z,6.05
2022-11-23T21:51:49.378Z,11.25
2022-11-23T21:54:16.760Z,30.60
2022-11-23T21:56:46.580Z,14.30
2022-11-23T21:59:15.658Z,9.98
2022-11-23T22:01:43.223Z,5.78
2022-11-23T22:04:16.150Z,6.68
2022-11-23T22:06:45.281Z,5.47
2022-11-23T22:09:15.154Z,5.20
2022-11-23T22:11:44.442Z,4.68
2022-11-23T22:14:16.041Z,5.07
2022-11-23T22:16:47.323Z,5.47
2022-11-23T22:19:17.025Z,5.07
2022-11-23T22:21:46.611Z,4.60
2022-11-23T22:24:18.361Z,4.07
2022-11-23T22:26:47.562Z,3.97
2022-11-23T22:29:17.652Z,4.63
2022-11-23T22:31:45.050Z,6.03
2022-11-23T22:34:15.239Z,5.32
2022-11-23T22:36:42.802Z,6.40
2022-11-23T22:39:10.142Z,3.58
2022-11-23T22:41:38.439Z,3.47
2022-11-23T22:44:10.607Z,3.22
2022-11-23T22:46:39.184Z,3.25
2022-11-23T22:49:07.033Z,2.80
2022-11-23T22:51:34.407Z,3.30
2022-11-23T22:54:02.520Z,4.05
2022-11-23T22:56:31.506Z,3.45
2022-11-23T22:58:59.342Z,4.00
2022-11-23T23:01:30.564Z,3.65
2022-11-23T23:04:01.875Z,3.70
2022-11-23T23:06:36.179Z,4.25
2022-11-23T23:09:07.323Z,3.58
2022-11-23T23:11:41.119Z,3.90
2022-11-23T23:14:08.427Z,3.08
2022-11-23T23:16:35.837Z,4.90
2022-11-23T23:19:06.376Z,5.93
2022-11-23T23:21:33.811Z,4.60
2022-11-23T23:24:01.484Z,3.42
2022-11-23T23:26:29.965Z,4.00
2022-11-23T23:29:00.348Z,3.80
2022-11-23T23:31:30.104Z,2.70
2022-11-23T23:34:00.026Z,2.95
2022-11-23T23:36:27.705Z,2.38
2022-11-23T23:38:55.301Z,2.92
2022-11-23T23:41:23.079Z,2.10
2022-11-23T23:43:50.732Z,4.43
2022-11-23T23:46:19.795Z,5.72
2022-11-23T23:48:47.434Z,2.90
2022-11-23T23:51:26.585Z,3.33
2022-11-23T23:53:54.147Z,3.25
2022-11-23T23:56:29.209Z,3.30
2022-11-23T23:58:59.170Z,3.38
